Belleview, FL (34421)

6:23 AM EST on March 05, 2015 (GMT -0500)
KFLBELLE2 | Change Station
CLOSE
Current Station
Personal Weather Station
Location: Candler, FL
Elevation: 75 ft
Nearby Weather Stations

Elev 75 ft 29.06 °N, 81.98 °W | Updated 2 minutes ago

Mostly Cloudy
Mostly Cloudy
63.1 °F
Feels Like 63.1 °F
N
0.0
Wind Variable Wind from WSW
Gusts 0.0 mph

Today
High -- | Low -- °F
--% Chance of Precip.
Yesterday
High -- | Low -- °F
Precip. -- in
6:49 AM 6:30 PM
Full, 100% visible
Pressure 29.97 in
Visibility 0.5 miles
Clouds
Dew Point 63 °F
Humidity 99%
Rainfall in
Snow Depth Not available.
UV Not available.
Pollen 10.90 out of 12
Air Quality Not available.
Flu Activity Not available.
METAR KVVG 051055Z AUTO 12003KT 1/2SM FG 17/17 A2997 RMK A01

More Conditions Fewer Conditions

Pressure 29.97 in
Visibility 0.5 miles
Clouds
Dew Point 63 °F
Humidity 99%
Rainfall in
Snow Depth Not available.
UV Not available.
Pollen 10.90 out of 12
Air Quality Not available.
Flu Activity Not available.
METAR KVVG 051055Z AUTO 12003KT 1/2SM FG 17/17 A2997 RMK A01

More Conditions Fewer Conditions

10-Day Weather Forecast

Almanac

Astronomy

Mar. 05, 2015 Rise Set
Actual Time
Civil Twilight
Nautical Twilight
Astronomical Twilight
Moon
Length of Visible Light
Length of Day
Tomorrow will be .
, % of the Moon is Illuminated

Today's Extremes

State Highs State Lows

Community

WunderPhotos

Upload Photos

1,802,716 photos uploaded!

WunderBlogs® & News

Nearby

Air Quality

  Air Quality AQ Index Pollutant
Not available.

Snow Depth

Station Depth Elevation

Earthquake Activity

City Distance Mag. Time & Date
Minimum magnitude displayed is 2.5.

Coastal Water Temperatures

Place Temperature

Nearby Weather Stations